KISWKDYT

Guest
Details From KISW - Alexander Fld South Wood Co
To KDYT - Sky Harbor
Flight Number -
Tags generated
Created
Modified
Stats Distance 169 nm / 314 km
Max Altitude 16,700 ft / 5,090 m
Waypoints 3
Social Downloads 1
Likes 0
Share VATSIM

Download

Looking for another format? Having issues loading an existing format? Contact us
Advertisement - Login to hide

Notes

Basic altitude profile: - Ascent Rate: 2500ft/min - Ascent Speed: 250kts - Cruise Altitude: 35000ft - Cruise Speed: 420kts - Descent Rate: 1500ft/min - Descent Speed: 250kts Options: - Use NATs: yes - Use PACOTS: yes - Use low airways: yes - Use high airways: no

Route

KISW LAYVU KDYT

ID Type Via Altitude Latitude Longitude Leg Dist Tot Dist Heading (true) Name
O KISW APT - 0 ft / 0 m 44.35997˚ -89.83948˚ - 0 nm - Alexander Fld South Wood Co
LAYVU FIX - 16,700 ft / 5,090 m 45.58468˚ -90.92123˚ 86 nm 86 nm 328° / 328° -
O KDYT APT - 0 ft / 0 m 46.72186˚ -92.04344˚ 82 nm 169 nm 326° / 325° Sky Harbor

Altitude Profile

Advertisement - Login to hide

Weather


0- 5 10 15 20 25 30 35+ Temperature / ° C

Clouds and Precipitation
Forecast for 2017-12-18 06:00 UTC. Updated 30 minutes ago

Ground ~20,000 ft ~40,000 ft Winds

KISW

Details ICAO KISW (ISW)
Name Alexander Fld South Wood Co
Region United States
Timezone America/Chicago (UTC-6.0)
Stats Elevation 1,021 ft / 311 m (AMSL)
Location 44.359969° -89.839476°
Runways 3
Magnetic Variation 2.539° W

METAR

KISW 180126Z AUTO 15003KT 3/4SM BR OVC002 M02/M03 A2999 RMK AO2 T10221028

Decode

TAF

Not found

Departure Runways

ID Width Length Bearing (true) Bearing (mag) Surface Threshold Offset Overrun Length
02 100 ft / 30 m 5,503 ft / 1,677 m 19.72° 22.26° Asphalt 0 ft / 0 m 0 ft / 0 m
11 50 ft / 15 m 3,633 ft / 1,107 m 115.97° 118.51° Asphalt 0 ft / 0 m 0 ft / 0 m
18 50 ft / 15 m 2,102 ft / 641 m 176.01° 178.55° Dirt 0 ft / 0 m 0 ft / 0 m
20 100 ft / 30 m 5,503 ft / 1,677 m 199.72° 202.26° Asphalt 0 ft / 0 m 100 ft / 30 m
29 50 ft / 15 m 3,633 ft / 1,107 m 295.98° 298.52° Asphalt 170 ft / 52 m 0 ft / 0 m
36 50 ft / 15 m 2,102 ft / 641 m 356.01° 358.55° Dirt 0 ft / 0 m 0 ft / 0 m

KDYT

Details ICAO KDYT
Name Sky Harbor
Region United States
Timezone America/Chicago (UTC-6.0)
Stats Elevation 610 ft / 186 m (AMSL)
Location 46.721860° -92.043439°
Runways 1
Magnetic Variation 1.041° W

METAR

KDYT 180135Z AUTO 21004KT 10SM OVC015 M03/M06 A2996 RMK AO2

Decode

TAF

Not found

Destination Runways

ID Width Length Bearing (true) Bearing (mag) Surface Threshold Offset Overrun Length
14 75 ft / 23 m 3,046 ft / 928 m 138.33° 139.37° Asphalt 0 ft / 0 m 0 ft / 0 m
32 75 ft / 23 m 3,046 ft / 928 m 318.34° 319.38° Asphalt 0 ft / 0 m 0 ft / 0 m